createdAt,value
2019-05-03T00:01:32.801Z,6.00
2019-05-03T00:04:06.503Z,6.00
2019-05-03T00:06:42.651Z,5.90
2019-05-03T00:09:17.705Z,5.80
2019-05-03T00:11:52.839Z,6.10
2019-05-03T00:14:28.574Z,6.20
2019-05-03T00:17:02.390Z,6.30
2019-05-03T00:19:35.958Z,6.40
2019-05-03T00:22:09.521Z,6.20
2019-05-03T00:24:44.158Z,6.00
2019-05-03T00:27:17.886Z,6.20
2019-05-03T00:29:52.384Z,6.10
2019-05-03T00:32:27.636Z,6.20
2019-05-03T00:35:19.122Z,6.20
2019-05-03T00:37:54.247Z,6.30
2019-05-03T00:40:32.402Z,6.00
2019-05-03T00:43:06.115Z,6.20
2019-05-03T00:45:39.655Z,6.20
2019-05-03T00:48:13.208Z,6.00
2019-05-03T00:50:47.336Z,5.80
2019-05-03T00:53:22.401Z,5.90
2019-05-03T00:55:56.209Z,6.00
2019-05-03T00:58:31.784Z,5.90
2019-05-03T01:01:06.671Z,5.90
2019-05-03T01:03:41.839Z,5.90
2019-05-03T01:06:16.477Z,5.80
2019-05-03T01:08:52.061Z,5.70
2019-05-03T01:11:26.373Z,5.50
2019-05-03T01:13:59.964Z,5.60
2019-05-03T01:16:33.674Z,5.60
2019-05-03T01:19:08.290Z,5.80
2019-05-03T01:21:42.284Z,5.80
2019-05-03T01:24:18.232Z,5.50
2019-05-03T01:26:52.733Z,5.60
2019-05-03T01:29:26.322Z,5.70
2019-05-03T01:32:02.114Z,5.40
2019-05-03T01:34:35.164Z,5.70
2019-05-03T01:37:08.788Z,5.80
2019-05-03T01:39:42.347Z,5.90
2019-05-03T01:42:16.088Z,6.00
2019-05-03T01:44:49.654Z,6.00
2019-05-03T01:47:24.826Z,6.00
2019-05-03T01:50:14.425Z,5.90
2019-05-03T01:52:49.618Z,6.00
2019-05-03T01:55:25.783Z,6.00
2019-05-03T01:57:59.377Z,6.20
2019-05-03T02:00:33.024Z,6.00
2019-05-03T02:03:08.315Z,6.10
2019-05-03T02:05:46.237Z,5.90
2019-05-03T02:08:21.895Z,6.20
2019-05-03T02:10:56.180Z,6.20
2019-05-03T02:13:29.761Z,5.80
2019-05-03T02:16:03.442Z,6.00
2019-05-03T02:18:37.024Z,6.00
2019-05-03T02:21:12.233Z,6.10
2019-05-03T02:23:46.086Z,5.70
2019-05-03T02:26:19.676Z,5.80
2019-05-03T02:28:53.296Z,6.00
2019-05-03T02:31:26.999Z,6.10
2019-05-03T02:34:03.280Z,6.10
2019-05-03T02:36:35.890Z,6.20
2019-05-03T02:39:13.566Z,6.20
2019-05-03T02:41:49.481Z,6.10
2019-05-03T02:44:26.418Z,6.10
2019-05-03T02:47:00.037Z,6.00
2019-05-03T02:49:38.025Z,6.10
2019-05-03T02:52:15.141Z,6.20
2019-05-03T02:54:48.395Z,6.20
2019-05-03T02:57:21.946Z,6.10
2019-05-03T02:59:55.689Z,6.30
2019-05-03T03:02:30.140Z,6.20
2019-05-03T03:05:05.762Z,6.20
2019-05-03T03:07:45.769Z,6.50
2019-05-03T03:10:18.389Z,6.50
2019-05-03T03:12:55.459Z,6.50
2019-05-03T03:15:32.766Z,6.50
2019-05-03T03:18:09.713Z,6.60
2019-05-03T03:20:47.215Z,6.70
2019-05-03T03:23:26.099Z,6.80
2019-05-03T03:26:00.576Z,6.90
2019-05-03T03:28:38.104Z,6.90
2019-05-03T03:32:00.294Z,6.80
2019-05-03T03:34:47.648Z,6.70
2019-05-03T03:37:35.255Z,6.70
2019-05-03T03:40:09.379Z,6.60
2019-05-03T03:42:44.973Z,6.70
2019-05-03T03:45:18.903Z,6.80
2019-05-03T03:47:56.193Z,6.80
2019-05-03T03:50:35.850Z,6.70
2019-05-03T03:53:15.242Z,6.80
2019-05-03T03:55:49.736Z,6.70
2019-05-03T03:58:26.729Z,6.60
2019-05-03T04:00:59.981Z,6.80
2019-05-03T04:03:36.165Z,7.00
2019-05-03T04:06:10.806Z,6.90
2019-05-03T04:08:45.401Z,7.00
2019-05-03T04:11:19.146Z,7.10
2019-05-03T04:13:55.776Z,7.10
2019-05-03T04:16:42.259Z,7.00
2019-05-03T04:19:21.105Z,7.00
2019-05-03T04:21:56.121Z,7.20
2019-05-03T04:24:31.508Z,7.30
2019-05-03T04:27:18.508Z,7.40
2019-05-03T04:29:45.430Z,7.60
2019-05-03T04:32:19.555Z,7.70
2019-05-03T04:34:55.933Z,7.80
2019-05-03T04:37:29.137Z,7.80
2019-05-03T04:40:02.804Z,7.90
2019-05-03T04:42:36.363Z,8.00
2019-05-03T04:45:11.740Z,8.10
2019-05-03T04:47:46.331Z,8.20
2019-05-03T04:50:21.297Z,8.30
2019-05-03T04:52:56.667Z,8.40
2019-05-03T04:55:30.095Z,8.50
2019-05-03T04:58:04.766Z,8.60
2019-05-03T05:00:38.542Z,8.70
2019-05-03T05:03:15.260Z,8.80
2019-05-03T05:05:48.987Z,9.00
2019-05-03T05:08:25.156Z,9.20
2019-05-03T05:10:57.904Z,9.40
2019-05-03T05:13:31.489Z,9.70
2019-05-03T05:16:06.105Z,9.90
2019-05-03T05:18:41.462Z,10.00
2019-05-03T05:21:19.539Z,10.10
2019-05-03T05:23:58.164Z,10.30
2019-05-03T05:26:35.212Z,10.40
2019-05-03T05:29:10.180Z,10.50
2019-05-03T05:31:44.622Z,10.70
2019-05-03T05:34:18.267Z,10.80
2019-05-03T05:36:51.792Z,10.90
2019-05-03T05:39:25.772Z,11.00
2019-05-03T05:41:59.407Z,11.10
2019-05-03T05:44:35.087Z,11.20
2019-05-03T05:47:12.633Z,11.30
2019-05-03T05:49:51.255Z,11.30
2019-05-03T05:52:27.609Z,11.40
2019-05-03T05:55:19.028Z,11.30
2019-05-03T05:58:03.042Z,11.40
2019-05-03T06:00:37.674Z,11.40
2019-05-03T06:03:11.304Z,11.50
2019-05-03T06:05:44.883Z,11.80
2019-05-03T06:08:38.245Z,12.00
2019-05-03T06:11:14.889Z,12.10
2019-05-03T06:16:45.806Z,12.30
2019-05-03T06:19:25.711Z,12.40
2019-05-03T06:22:01.865Z,12.40
2019-05-03T06:24:37.151Z,12.50
2019-05-03T06:27:17.276Z,12.50
2019-05-03T06:29:54.551Z,12.50
2019-05-03T06:32:29.744Z,12.60
2019-05-03T06:35:04.944Z,12.60
2019-05-03T06:37:42.967Z,12.30
2019-05-03T06:40:16.754Z,12.30
2019-05-03T06:45:54.818Z,12.40
2019-05-03T06:48:31.956Z,12.30
2019-05-03T06:51:08.881Z,12.50
2019-05-03T06:53:41.940Z,12.60
2019-05-03T06:56:14.913Z,12.60
2019-05-03T06:58:48.508Z,12.80
2019-05-03T07:01:29.459Z,13.00
2019-05-03T07:04:19.737Z,13.00
2019-05-03T07:06:55.937Z,13.10
2019-05-03T07:09:31.044Z,13.00
2019-05-03T07:12:04.766Z,13.20
2019-05-03T07:14:38.417Z,13.20
2019-05-03T07:17:14.420Z,13.20
2019-05-03T07:19:47.926Z,13.10
2019-05-03T07:22:21.934Z,13.10
2019-05-03T07:24:55.695Z,13.20
2019-05-03T07:27:31.487Z,13.10
2019-05-03T07:30:07.924Z,13.20
2019-05-03T07:32:44.880Z,13.10
2019-05-03T07:35:18.590Z,13.20
2019-05-03T07:37:52.884Z,13.40
2019-05-03T07:40:28.110Z,13.30
2019-05-03T07:43:02.037Z,13.20
2019-05-03T07:45:35.867Z,13.40
2019-05-03T07:48:10.070Z,13.50
2019-05-03T07:50:44.736Z,13.70
2019-05-03T07:53:18.523Z,13.90
2019-05-03T07:56:00.234Z,14.10
2019-05-03T07:58:38.520Z,13.90
2019-05-03T08:01:14.963Z,14.00
2019-05-03T08:03:48.655Z,14.20
2019-05-03T08:06:24.562Z,14.10
2019-05-03T08:08:57.554Z,13.90
2019-05-03T08:11:32.159Z,14.10
2019-05-03T08:14:07.484Z,14.20
2019-05-03T08:16:41.194Z,13.80
2019-05-03T08:19:15.816Z,13.70
2019-05-03T08:21:49.765Z,13.40
2019-05-03T08:24:25.312Z,13.30
2019-05-03T08:26:59.146Z,13.40
2019-05-03T08:29:35.174Z,13.40
2019-05-03T08:32:15.316Z,13.20
2019-05-03T08:35:06.006Z,13.10
2019-05-03T08:37:41.342Z,13.00
2019-05-03T08:40:15.747Z,13.00
2019-05-03T08:42:49.451Z,13.00
2019-05-03T08:45:23.176Z,13.00
2019-05-03T08:48:01.628Z,12.80
2019-05-03T08:50:35.278Z,12.70
2019-05-03T08:53:08.888Z,12.50
2019-05-03T08:55:44.808Z,12.30
2019-05-03T08:58:17.882Z,12.10
2019-05-03T09:00:54.693Z,12.10
2019-05-03T09:03:28.443Z,11.90
2019-05-03T09:06:02.248Z,12.00
2019-05-03T09:08:35.816Z,11.80
2019-05-03T09:14:04.577Z,11.90
2019-05-03T09:16:38.242Z,11.70
2019-05-03T09:19:11.828Z,11.80
2019-05-03T09:21:45.667Z,11.90
2019-05-03T09:24:19.248Z,12.10
2019-05-03T09:26:52.850Z,12.10
2019-05-03T09:29:26.435Z,12.00
2019-05-03T09:32:00.196Z,12.10
2019-05-03T09:34:35.115Z,12.30
2019-05-03T09:37:08.918Z,12.30
2019-05-03T09:39:44.561Z,12.40
2019-05-03T09:42:18.237Z,12.50
2019-05-03T09:44:52.608Z,12.70
2019-05-03T09:47:27.164Z,12.90
2019-05-03T09:50:02.222Z,12.70
2019-05-03T09:52:37.007Z,12.80
2019-05-03T09:55:15.312Z,13.00
2019-05-03T09:57:49.165Z,12.70
2019-05-03T10:00:25.603Z,13.00
2019-05-03T10:02:59.225Z,12.80
2019-05-03T10:05:34.937Z,12.50
2019-05-03T10:08:08.094Z,12.30
2019-05-03T10:11:10.492Z,11.80
2019-05-03T10:13:48.428Z,11.80
2019-05-03T10:16:22.004Z,11.60
2019-05-03T10:18:55.827Z,11.30
2019-05-03T10:21:31.050Z,11.30
2019-05-03T10:24:05.696Z,11.30
2019-05-03T10:26:40.448Z,11.50
2019-05-03T10:29:15.217Z,11.60
2019-05-03T10:31:54.567Z,11.80
2019-05-03T10:34:29.364Z,11.70
2019-05-03T10:37:05.089Z,11.60
2019-05-03T10:39:38.278Z,11.60
2019-05-03T10:42:11.994Z,11.40
2019-05-03T10:44:45.911Z,11.40
2019-05-03T10:47:20.453Z,11.20
2019-05-03T10:49:55.017Z,11.00
2019-05-03T10:52:36.413Z,10.90
2019-05-03T10:55:10.515Z,10.70
2019-05-03T10:57:45.646Z,10.70
2019-05-03T11:00:42.476Z,10.50
2019-05-03T11:02:58.965Z,10.50
2019-05-03T11:05:34.725Z,10.60
2019-05-03T11:08:08.170Z,10.60
2019-05-03T11:10:42.854Z,10.60
2019-05-03T11:13:16.588Z,10.50
2019-05-03T11:15:51.839Z,10.50
2019-05-03T11:18:26.458Z,10.40
2019-05-03T11:21:00.093Z,10.30
2019-05-03T11:23:34.687Z,10.30
2019-05-03T11:26:08.357Z,10.30
2019-05-03T11:28:46.136Z,10.40
2019-05-03T11:31:37.759Z,10.40
2019-05-03T11:34:16.852Z,10.50
2019-05-03T11:36:52.027Z,10.40
2019-05-03T11:39:25.674Z,10.20
2019-05-03T11:42:00.500Z,10.30
2019-05-03T11:44:36.364Z,10.20
2019-05-03T11:47:10.163Z,10.10
2019-05-03T11:49:45.426Z,10.00
2019-05-03T11:52:19.298Z,10.00
2019-05-03T11:54:55.120Z,9.90
2019-05-03T11:57:29.789Z,10.00
2019-05-03T12:00:05.364Z,10.00
2019-05-03T12:02:40.222Z,10.10
2019-05-03T12:05:18.073Z,10.10
2019-05-03T12:07:52.160Z,10.10
2019-05-03T12:10:50.342Z,10.10
2019-05-03T12:13:04.899Z,10.00
2019-05-03T12:15:38.095Z,9.90
2019-05-03T12:18:11.812Z,9.90
2019-05-03T12:20:52.244Z,9.90
2019-05-03T12:23:26.783Z,10.00
2019-05-03T12:26:01.910Z,9.90
2019-05-03T12:28:36.848Z,10.00
2019-05-03T12:31:26.014Z,9.90
2019-05-03T12:33:46.749Z,9.90
2019-05-03T12:36:20.428Z,9.80
2019-05-03T12:38:54.837Z,9.80
2019-05-03T12:41:28.748Z,9.70
2019-05-03T12:44:04.574Z,9.70
2019-05-03T12:46:39.391Z,9.70
2019-05-03T12:49:15.391Z,9.80
2019-05-03T12:51:49.987Z,9.70
2019-05-03T12:54:24.631Z,9.70
2019-05-03T12:56:59.798Z,9.60
2019-05-03T12:59:36.866Z,9.70
2019-05-03T13:02:28.398Z,9.80
2019-05-03T13:05:04.736Z,9.90
2019-05-03T13:07:48.533Z,10.00
2019-05-03T13:10:23.864Z,10.10
2019-05-03T13:12:57.793Z,10.10
2019-05-03T13:15:31.474Z,9.90
2019-05-03T13:18:05.110Z,10.00
2019-05-03T13:20:38.872Z,10.10
2019-05-03T13:23:13.080Z,10.10
2019-05-03T13:25:46.953Z,10.30
2019-05-03T13:28:21.636Z,10.30
2019-05-03T13:30:55.303Z,10.40
2019-05-03T13:33:28.997Z,10.70
2019-05-03T13:36:02.836Z,10.80
2019-05-03T13:38:36.403Z,10.90
2019-05-03T13:41:10.124Z,11.00
2019-05-03T13:43:45.471Z,11.00
2019-05-03T13:46:19.259Z,11.00
2019-05-03T13:48:55.872Z,11.10
2019-05-03T13:51:29.536Z,11.00
2019-05-03T13:54:05.488Z,10.90
2019-05-03T13:56:39.275Z,10.70
2019-05-03T13:59:19.774Z,10.90
2019-05-03T14:01:48.314Z,11.10
2019-05-03T14:04:24.678Z,11.00
2019-05-03T14:06:58.404Z,10.70
2019-05-03T14:09:32.004Z,10.60
2019-05-03T14:12:07.570Z,10.60
2019-05-03T14:14:55.753Z,10.70
2019-05-03T14:17:29.519Z,10.60
2019-05-03T14:20:18.381Z,10.70
2019-05-03T14:22:53.129Z,10.70
2019-05-03T14:25:26.714Z,10.60
2019-05-03T14:28:00.330Z,10.70
2019-05-03T14:30:34.687Z,10.70
2019-05-03T14:33:08.466Z,10.60
2019-05-03T14:35:42.063Z,10.60
2019-05-03T14:38:16.569Z,10.60
2019-05-03T14:40:50.204Z,10.80
2019-05-03T14:43:24.891Z,10.70
2019-05-03T14:45:58.679Z,10.80
2019-05-03T14:48:32.369Z,10.60
2019-05-03T14:51:06.081Z,10.60
2019-05-03T14:53:39.986Z,10.70
2019-05-03T14:56:15.318Z,10.60
2019-05-03T14:59:07.005Z,10.40
2019-05-03T15:01:42.342Z,10.40
2019-05-03T15:04:15.934Z,10.40
2019-05-03T15:06:50.742Z,10.30
2019-05-03T15:09:25.153Z,10.40
2019-05-03T15:11:58.836Z,10.40
2019-05-03T15:14:34.483Z,10.50
2019-05-03T15:17:10.579Z,10.50
2019-05-03T15:19:45.379Z,10.50
2019-05-03T15:22:20.201Z,10.60
2019-05-03T15:24:54.604Z,10.40
2019-05-03T15:27:28.316Z,10.60
2019-05-03T15:30:01.918Z,10.70
2019-05-03T15:32:35.682Z,10.50
2019-05-03T15:35:10.365Z,10.50
2019-05-03T15:37:45.380Z,10.60
2019-05-03T15:40:21.368Z,10.70
2019-05-03T15:42:56.938Z,10.60
2019-05-03T15:45:38.678Z,10.70
2019-05-03T15:48:19.907Z,10.60
2019-05-03T15:50:55.328Z,10.80
2019-05-03T15:53:31.756Z,10.90
2019-05-03T15:56:05.504Z,10.80
2019-05-03T15:58:40.645Z,10.80
2019-05-03T16:01:15.316Z,10.90
2019-05-03T16:03:49.080Z,10.70
2019-05-03T16:06:24.681Z,10.70
2019-05-03T16:08:58.824Z,10.80
2019-05-03T16:11:34.304Z,10.80
2019-05-03T16:14:07.944Z,11.20
2019-05-03T16:16:41.703Z,11.30
2019-05-03T16:19:15.260Z,11.40
2019-05-03T16:21:48.818Z,11.40
2019-05-03T16:24:24.949Z,11.40
2019-05-03T16:27:06.198Z,11.30
2019-05-03T16:29:45.953Z,11.40
2019-05-03T16:32:18.442Z,11.30
2019-05-03T16:34:54.890Z,11.30
2019-05-03T16:37:29.835Z,11.30
2019-05-03T16:40:05.203Z,11.30
2019-05-03T16:42:38.834Z,11.40
2019-05-03T16:45:12.502Z,11.50
2019-05-03T16:47:46.498Z,11.40
2019-05-03T16:50:20.081Z,11.40
2019-05-03T16:52:55.005Z,11.40
2019-05-03T16:55:29.058Z,11.10
2019-05-03T16:58:02.737Z,11.20
2019-05-03T17:00:37.354Z,11.20
2019-05-03T17:03:12.013Z,11.00
2019-05-03T17:06:03.235Z,11.10
2019-05-03T17:08:56.777Z,10.90
2019-05-03T17:11:37.761Z,10.80
2019-05-03T17:14:15.883Z,10.70
2019-05-03T17:16:49.764Z,10.70
2019-05-03T17:19:24.515Z,10.70
2019-05-03T17:21:58.562Z,10.60
2019-05-03T17:24:32.337Z,10.60
2019-05-03T17:27:07.579Z,10.60
2019-05-03T17:29:41.223Z,10.50
2019-05-03T17:32:15.346Z,10.60
2019-05-03T17:34:49.981Z,10.60
2019-05-03T17:37:25.465Z,10.40
2019-05-03T17:40:05.427Z,10.30
2019-05-03T17:42:45.099Z,10.30
2019-05-03T17:45:20.076Z,10.30
2019-05-03T17:47:54.886Z,10.30
2019-05-03T17:50:29.955Z,10.00
2019-05-03T17:53:05.320Z,10.10
2019-05-03T17:55:41.709Z,10.20
2019-05-03T17:58:16.970Z,10.10
2019-05-03T18:00:56.239Z,10.20
2019-05-03T18:03:34.265Z,10.10
2019-05-03T18:06:14.943Z,10.10
2019-05-03T18:08:48.447Z,10.10
2019-05-03T18:11:25.217Z,10.20
2019-05-03T18:13:59.037Z,10.00
2019-05-03T18:16:34.904Z,10.00
2019-05-03T18:19:08.187Z,10.00
2019-05-03T18:21:41.885Z,10.00
2019-05-03T18:24:15.604Z,10.00
2019-05-03T18:26:51.773Z,9.80
2019-05-03T18:29:25.836Z,9.70
2019-05-03T18:32:00.403Z,9.50
2019-05-03T18:34:34.073Z,9.50
2019-05-03T18:37:07.646Z,9.50
2019-05-03T18:39:42.333Z,9.50
2019-05-03T18:42:18.659Z,9.50
2019-05-03T18:44:59.706Z,9.50
2019-05-03T18:47:34.396Z,9.40
2019-05-03T18:50:09.363Z,9.50
2019-05-03T18:52:44.947Z,9.50
2019-05-03T18:55:18.475Z,9.50
2019-05-03T18:57:52.474Z,9.40
2019-05-03T19:00:27.908Z,9.30
2019-05-03T19:03:08.817Z,9.20
2019-05-03T19:05:45.318Z,9.30
2019-05-03T19:08:29.083Z,9.40
2019-05-03T19:11:04.617Z,9.30
2019-05-03T19:13:41.511Z,9.40
2019-05-03T19:16:25.739Z,9.30
2019-05-03T19:19:02.235Z,9.30
2019-05-03T19:21:35.796Z,9.40
2019-05-03T19:24:10.360Z,9.40
2019-05-03T19:26:45.054Z,9.50
2019-05-03T19:29:18.783Z,9.50
2019-05-03T19:31:55.267Z,9.40
2019-05-03T19:34:28.006Z,9.60
2019-05-03T19:37:01.602Z,9.60
2019-05-03T19:39:35.176Z,9.50
2019-05-03T19:42:08.795Z,9.40
2019-05-03T19:44:42.317Z,9.50
2019-05-03T19:47:15.885Z,9.40
2019-05-03T19:49:49.676Z,9.30
2019-05-03T19:52:25.475Z,9.20
2019-05-03T19:55:01.203Z,9.10
2019-05-03T19:57:36.448Z,9.30
2019-05-03T20:00:10.856Z,9.20
2019-05-03T20:02:46.949Z,9.10
2019-05-03T20:05:25.256Z,9.10
2019-05-03T20:08:11.822Z,9.20
2019-05-03T20:10:46.881Z,9.20
2019-05-03T20:13:31.927Z,9.20
2019-05-03T20:15:55.761Z,9.20
2019-05-03T20:18:30.387Z,9.10
2019-05-03T20:21:04.347Z,9.10
2019-05-03T20:23:38.076Z,9.00
2019-05-03T20:26:11.661Z,8.90
2019-05-03T20:28:45.315Z,8.90
2019-05-03T20:31:20.516Z,8.80
2019-05-03T20:33:55.003Z,8.90
2019-05-03T20:36:28.896Z,8.80
2019-05-03T20:39:02.392Z,8.70
2019-05-03T20:41:37.704Z,8.70
2019-05-03T20:44:19.768Z,8.80
2019-05-03T20:47:14.927Z,8.80
2019-05-03T20:49:51.207Z,8.70
2019-05-03T20:52:24.767Z,8.70
2019-05-03T20:54:58.447Z,8.70
2019-05-03T20:57:31.999Z,8.60
2019-05-03T21:00:08.682Z,8.70
2019-05-03T21:02:51.488Z,8.70
2019-05-03T21:05:29.544Z,8.80
2019-05-03T21:07:54.995Z,8.70
2019-05-03T21:10:28.815Z,8.70
2019-05-03T21:13:02.516Z,8.70
2019-05-03T21:15:40.743Z,8.70
2019-05-03T21:18:15.928Z,8.60
2019-05-03T21:20:51.164Z,8.60
2019-05-03T21:23:34.304Z,8.40
2019-05-03T21:26:13.732Z,8.50
2019-05-03T21:28:46.259Z,8.40
2019-05-03T21:31:19.852Z,8.50
2019-05-03T21:33:55.258Z,8.40
2019-05-03T21:36:28.943Z,8.30
2019-05-03T21:39:05.217Z,8.10
2019-05-03T21:41:39.846Z,8.10
2019-05-03T21:44:15.468Z,7.80
2019-05-03T21:47:18.404Z,7.90
2019-05-03T21:49:53.928Z,7.80
2019-05-03T21:52:28.683Z,7.80
2019-05-03T21:55:05.516Z,7.80
2019-05-03T21:57:39.251Z,7.80
2019-05-03T22:00:15.683Z,7.70
2019-05-03T22:02:50.903Z,7.80
2019-05-03T22:05:26.494Z,7.80
2019-05-03T22:08:01.157Z,7.70
2019-05-03T22:10:35.127Z,7.70
2019-05-03T22:13:08.807Z,7.90
2019-05-03T22:15:44.058Z,7.90
2019-05-03T22:18:22.164Z,7.80
2019-05-03T22:21:14.655Z,7.90
2019-05-03T22:24:06.286Z,8.00
2019-05-03T22:27:00.689Z,7.70
2019-05-03T22:29:35.594Z,7.70
2019-05-03T22:32:10.454Z,7.80
2019-05-03T22:34:45.554Z,7.70
2019-05-03T22:37:19.533Z,7.70
2019-05-03T22:39:58.681Z,7.80
2019-05-03T22:42:34.426Z,7.80
2019-05-03T22:45:08.980Z,7.80
2019-05-03T22:47:44.465Z,7.70
2019-05-03T22:50:17.758Z,7.70
2019-05-03T22:52:51.323Z,7.60
2019-05-03T22:55:24.984Z,7.60
2019-05-03T22:57:58.588Z,7.40
2019-05-03T23:00:32.181Z,7.40
2019-05-03T23:03:05.827Z,7.40
2019-05-03T23:05:40.018Z,7.40
2019-05-03T23:08:14.957Z,7.30
2019-05-03T23:10:48.669Z,7.30
2019-05-03T23:13:22.215Z,7.20
2019-05-03T23:15:56.322Z,7.20
2019-05-03T23:18:29.964Z,7.00
2019-05-03T23:21:11.633Z,7.10
2019-05-03T23:23:54.668Z,7.00
2019-05-03T23:26:28.883Z,7.00
2019-05-03T23:29:04.297Z,7.00
2019-05-03T23:31:37.726Z,7.10
2019-05-03T23:34:11.264Z,7.10
2019-05-03T23:36:45.530Z,7.10
2019-05-03T23:39:19.308Z,6.90
2019-05-03T23:41:53.017Z,6.60
2019-05-03T23:44:28.191Z,6.60
2019-05-03T23:47:05.188Z,6.90
2019-05-03T23:49:38.894Z,7.00
2019-05-03T23:52:26.484Z,7.10
2019-05-03T23:55:07.196Z,7.10
2019-05-03T23:57:44.618Z,7.00
